Time;durP1;ratioP1;P1;durP2;ratioP2;P2;SDS_P1;SDS_P2;PMS_P1;PMS_P2;Temp;Humidity;BMP_temperature;BMP_pressure;BME280_temperature;BME280_humidity;BME280_pressure;Samples;Min_cycle;Max_cycle;Signal;HPM_P1;HPM_P2
2022/04/17 00:02:02;;;;;;;1.73;1.23;;;6.80;68.30;;;;;;10327035;28;20060;-86
2022/04/17 00:07:04;;;;;;;1.92;1.30;;;6.70;68.50;;;;;;10316925;28;20045;-86
2022/04/17 00:12:06;;;;;;;1.70;0.93;;;6.70;69.50;;;;;;10328885;28;20133;-87
2022/04/17 00:17:13;;;;;;;3.05;1.10;;;6.60;69.20;;;;;;10337100;28;20046;-87
2022/04/17 00:22:15;;;;;;;3.38;0.85;;;6.60;70.80;;;;;;10321306;28;20109;-87
2022/04/17 00:27:17;;;;;;;1.35;0.80;;;6.60;70.90;;;;;;10310637;28;20046;-85
2022/04/17 00:32:19;;;;;;;3.38;1.40;;;6.50;70.80;;;;;;10321924;28;20053;-85
2022/04/17 00:37:20;;;;;;;1.38;1.00;;;6.30;70.60;;;;;;10337911;28;20068;-85
2022/04/17 00:42:22;;;;;;;2.20;1.00;;;6.10;70.80;;;;;;10331151;28;20062;-86
2022/04/17 00:47:24;;;;;;;2.10;1.38;;;6.10;72.00;;;;;;10342125;28;20054;-86
2022/04/17 00:52:26;;;;;;;3.03;1.48;;;6.00;73.30;;;;;;10329677;28;20081;-87
2022/04/17 00:57:29;;;;;;;2.95;1.10;;;5.90;75.20;;;;;;10330302;28;20688;-88
2022/04/17 01:02:31;;;;;;;1.77;1.00;;;5.80;75.60;;;;;;10332303;28;20637;-88
2022/04/17 01:07:33;;;;;;;2.63;1.08;;;5.50;75.10;;;;;;10327847;28;20136;-87
2022/04/17 01:12:37;;;;;;;1.92;1.23;;;5.50;75.70;;;;;;10325377;28;20042;-87
2022/04/17 01:17:38;;;;;;;3.88;1.20;;;5.50;77.80;;;;;;10328196;28;20050;-87
2022/04/17 01:22:47;;;;;;;4.60;1.40;;;5.40;80.20;;;;;;10329925;28;20038;-87
2022/04/17 01:27:49;;;;;;;1.52;0.77;;;5.30;81.30;;;;;;10318705;28;20784;-87
2022/04/17 01:32:51;;;;;;;1.95;0.88;;;5.20;81.40;;;;;;10341440;28;20045;-85
2022/04/17 01:37:52;;;;;;;2.25;1.02;;;5.20;82.50;;;;;;10332964;28;20046;-85
2022/04/17 01:42:54;;;;;;;3.67;0.90;;;5.00;81.60;;;;;;10337798;28;20038;-86
2022/04/17 01:47:56;;;;;;;4.00;0.98;;;5.00;82.00;;;;;;10338691;28;20046;-86
2022/04/17 01:53:00;;;;;;;3.95;0.82;;;4.90;83.70;;;;;;10374442;28;20048;-86
2022/04/17 01:58:02;;;;;;;2.38;0.63;;;4.80;83.50;;;;;;10362474;28;20068;-86
2022/04/17 02:03:04;;;;;;;2.15;0.80;;;4.70;83.80;;;;;;10384630;28;20049;-86
2022/04/17 02:08:06;;;;;;;4.40;1.00;;;4.70;84.00;;;;;;10354636;28;20404;-86
2022/04/17 02:13:08;;;;;;;1.58;0.70;;;4.60;84.00;;;;;;10343884;28;20052;-86
2022/04/17 02:18:11;;;;;;;1.08;0.60;;;4.60;84.00;;;;;;10362527;28;20037;-86
2022/04/17 02:23:14;;;;;;;2.53;0.80;;;4.60;84.80;;;;;;10354038;28;20550;-86
2022/04/17 02:28:16;;;;;;;2.55;0.85;;;4.50;85.00;;;;;;10341857;28;20137;-87
2022/04/17 02:33:19;;;;;;;1.30;0.70;;;4.50;85.70;;;;;;10362290;28;20479;-86
2022/04/17 02:38:21;;;;;;;3.03;0.80;;;4.50;90.00;;;;;;10356204;28;20041;-85
2022/04/17 02:43:23;;;;;;;1.77;0.98;;;4.40;90.80;;;;;;10369065;28;20048;-86
2022/04/17 02:48:24;;;;;;;1.77;1.08;;;4.40;90.90;;;;;;10351609;28;20050;-85
2022/04/17 02:53:26;;;;;;;1.90;0.73;;;4.40;90.90;;;;;;10371792;28;20053;-86
2022/04/17 02:58:29;;;;;;;1.60;0.85;;;4.20;90.70;;;;;;10356928;28;20047;-86
2022/04/17 03:08:51;;;;;;;3.35;0.70;;;4.20;90.80;;;;;;10349947;28;20085;-88
2022/04/17 03:13:53;;;;;;;1.67;0.70;;;4.10;91.40;;;;;;10344461;28;20069;-86
2022/04/17 03:18:55;;;;;;;1.75;0.90;;;4.00;92.10;;;;;;10371588;28;20052;-86
2022/04/17 03:23:57;;;;;;;1.92;0.60;;;3.90;93.50;;;;;;10359540;28;20057;-87
2022/04/17 03:28:59;;;;;;;1.52;0.68;;;3.90;94.30;;;;;;10368405;28;20128;-87
2022/04/17 03:34:01;;;;;;;1.35;0.70;;;3.90;94.90;;;;;;10366619;28;20054;-87
2022/04/17 03:39:03;;;;;;;3.13;0.70;;;3.80;95.40;;;;;;10357098;28;20427;-87
2022/04/17 03:44:05;;;;;;;4.28;0.50;;;3.80;95.60;;;;;;10349837;28;20399;-87
2022/04/17 03:49:06;;;;;;;3.28;1.10;;;3.70;96.50;;;;;;10372858;28;20053;-86
2022/04/17 03:54:08;;;;;;;6.32;2.08;;;3.70;96.70;;;;;;10374568;28;20140;-87
2022/04/17 03:59:10;;;;;;;9.93;3.33;;;3.70;97.60;;;;;;10343705;28;20688;-87
2022/04/17 04:04:14;;;;;;;1.55;0.70;;;3.70;98.20;;;;;;10369011;28;20049;-87
2022/04/17 04:09:16;;;;;;;2.00;0.93;;;3.70;99.10;;;;;;10359026;28;20041;-88
2022/04/17 04:14:18;;;;;;;1.30;1.13;;;3.60;99.00;;;;;;10362445;28;20111;-88
2022/04/17 04:19:20;;;;;;;2.35;1.00;;;3.50;99.90;;;;;;10374950;28;20144;-89
2022/04/17 04:24:24;;;;;;;2.58;0.60;;;3.50;99.90;;;;;;10369764;28;20067;-88
2022/04/17 04:29:26;;;;;;;1.63;0.70;;;3.50;99.90;;;;;;10258936;28;20046;-90
2022/04/17 04:34:29;;;;;;;2.45;0.75;;;3.50;99.90;;;;;;10299465;28;20080;-89
2022/04/17 04:39:34;;;;;;;2.75;0.70;;;3.50;99.90;;;;;;10322200;28;20033;-90
2022/04/17 04:44:36;;;;;;;1.88;0.70;;;3.50;99.90;;;;;;10303925;28;20488;-91
2022/04/17 04:49:38;;;;;;;6.88;1.25;;;3.50;99.90;;;;;;10324632;28;20049;-90
2022/04/17 04:54:40;;;;;;;2.30;0.75;;;3.50;99.90;;;;;;10329026;28;20046;-90
2022/04/17 04:59:44;;;;;;;1.10;0.70;;;3.40;99.00;;;;;;10277262;28;20079;-90
2022/04/17 05:04:46;;;;;;;2.90;1.00;;;3.50;99.20;;;;;;10297862;28;20053;-90
2022/04/17 05:09:48;;;;;;;2.45;1.10;;;3.40;99.70;;;;;;10343817;28;20092;-90
2022/04/17 05:14:50;;;;;;;2.00;1.10;;;3.30;99.90;;;;;;10341329;28;20057;-89
2022/04/17 05:19:52;;;;;;;1.98;1.23;;;3.30;99.90;;;;;;10360284;28;20443;-90
2022/04/17 05:24:54;;;;;;;2.00;1.02;;;3.40;99.90;;;;;;10359665;28;20052;-90
2022/04/17 05:29:56;;;;;;;3.75;1.67;;;3.50;99.90;;;;;;10358270;28;20121;-89
2022/04/17 05:34:58;;;;;;;4.28;1.65;;;3.50;99.90;;;;;;10364852;28;20053;-90
2022/04/17 05:40:00;;;;;;;2.65;1.38;;;3.60;99.90;;;;;;10344686;28;20046;-89
2022/04/17 05:45:02;;;;;;;4.20;1.60;;;3.70;99.90;;;;;;10320513;28;20053;-89
2022/04/17 05:50:05;;;;;;;2.00;1.10;;;3.80;99.90;;;;;;10302266;28;20045;-90
2022/04/17 05:55:11;;;;;;;1.70;1.08;;;3.90;99.90;;;;;;10341102;28;20112;-90
2022/04/17 06:00:14;;;;;;;2.70;1.10;;;4.10;99.90;;;;;;10346377;28;20081;-89
2022/04/17 06:05:20;;;;;;;2.30;0.90;;;4.20;99.90;;;;;;10350041;28;20123;-90
2022/04/17 06:10:22;;;;;;;2.10;1.10;;;4.40;99.90;;;;;;10330105;28;20050;-90
2022/04/17 06:15:24;;;;;;;2.70;1.08;;;4.60;99.90;;;;;;10360176;28;20042;-91
2022/04/17 06:20:26;;;;;;;2.75;1.25;;;4.80;99.90;;;;;;10341888;28;20053;-91
2022/04/17 06:25:28;;;;;;;3.33;1.25;;;5.00;98.90;;;;;;10367948;28;20045;-90
2022/04/17 06:30:32;;;;;;;3.80;1.33;;;5.30;98.00;;;;;;10294234;28;20077;-90
2022/04/17 06:35:33;;;;;;;2.00;1.17;;;5.60;97.50;;;;;;10318596;28;20541;-90
2022/04/17 06:40:36;;;;;;;1.90;0.90;;;5.90;95.50;;;;;;10350057;28;20045;-89
2022/04/17 06:45:40;;;;;;;4.68;1.10;;;6.20;92.40;;;;;;10360977;28;20041;-90
2022/04/17 06:50:46;;;;;;;1.92;0.98;;;6.40;90.20;;;;;;10344292;28;20030;-90
2022/04/17 06:55:48;;;;;;;1.35;0.80;;;6.60;87.20;;;;;;10213088;28;20038;-90
2022/04/17 07:00:51;;;;;;;2.63;0.88;;;6.80;85.00;;;;;;10348317;28;20046;-89
2022/04/17 07:05:53;;;;;;;2.03;0.90;;;7.10;83.60;;;;;;10358032;28;20061;-89
2022/04/17 07:10:54;;;;;;;1.58;1.00;;;7.30;81.20;;;;;;10370177;28;20049;-90
2022/04/17 07:15:57;;;;;;;1.55;0.80;;;7.50;79.90;;;;;;10381709;28;20607;-91
2022/04/17 07:21:06;;;;;;;3.00;1.10;;;7.60;79.10;;;;;;10348390;28;20049;-90
2022/04/17 07:26:08;;;;;;;2.63;0.95;;;7.90;77.80;;;;;;10370057;28;20084;-90
2022/04/17 07:31:10;;;;;;;3.88;0.68;;;8.10;78.10;;;;;;10385446;28;20125;-90
2022/04/17 07:36:12;;;;;;;2.35;0.80;;;8.30;76.90;;;;;;10330247;28;20556;-90
2022/04/17 07:41:14;;;;;;;1.05;0.55;;;8.50;74.90;;;;;;10354291;28;20037;-90
2022/04/17 07:46:16;;;;;;;3.25;0.85;;;8.70;75.50;;;;;;10361938;28;20092;-90
2022/04/17 07:51:17;;;;;;;1.98;0.70;;;8.90;74.40;;;;;;10319243;28;20049;-89
2022/04/17 07:56:19;;;;;;;1.48;0.60;;;9.10;73.10;;;;;;10322969;28;20049;-90
2022/04/17 08:01:22;;;;;;;1.13;0.45;;;9.40;67.40;;;;;;10341053;28;20090;-90
2022/04/17 08:06:24;;;;;;;3.30;0.70;;;9.60;66.50;;;;;;10339884;28;20121;-90
2022/04/17 08:11:28;;;;;;;1.33;0.95;;;9.60;66.40;;;;;;10337077;28;20061;-90
2022/04/17 08:16:30;;;;;;;0.77;0.50;;;9.90;66.90;;;;;;10312465;28;20054;-90
2022/04/17 08:21:32;;;;;;;2.42;0.52;;;10.10;65.40;;;;;;10325466;28;20503;-89
2022/04/17 08:26:34;;;;;;;1.92;0.52;;;10.20;65.30;;;;;;10329087;28;20050;-89
2022/04/17 08:31:36;;;;;;;1.85;0.57;;;10.50;63.40;;;;;;10320330;28;20131;-90
2022/04/17 08:36:38;;;;;;;2.15;0.60;;;10.70;63.40;;;;;;10331153;28;20042;-90
2022/04/17 08:41:44;;;;;;;2.03;0.55;;;10.90;63.50;;;;;;10323703;28;20042;-90
2022/04/17 08:46:49;;;;;;;2.13;0.40;;;11.00;63.00;;;;;;10298096;28;20126;-89
2022/04/17 08:51:53;;;;;;;1.20;0.50;;;11.20;62.00;;;;;;10299444;28;20057;-91
2022/04/17 08:56:56;;;;;;;1.23;0.93;;;11.50;61.30;;;;;;10338384;28;20144;-89
2022/04/17 09:02:06;;;;;;;3.20;0.50;;;11.70;59.70;;;;;;10267778;28;20089;-90
2022/04/17 09:07:10;;;;;;;1.48;0.43;;;11.80;59.80;;;;;;10181904;28;20054;-91
2022/04/17 09:12:29;;;;;;;4.78;0.35;;;12.00;57.60;;;;;;10286161;28;20113;-91
2022/04/17 09:17:34;;;;;;;1.25;0.35;;;12.30;55.80;;;;;;10226205;28;20049;-91
2022/04/17 09:22:46;;;;;;;1.33;0.38;;;12.30;54.60;;;;;;10264745;28;20122;-90
2022/04/17 09:28:09;;;;;;;0.88;0.40;;;12.60;53.60;;;;;;10298780;28;20053;-89
2022/04/17 09:33:13;;;;;;;2.88;0.30;;;12.80;53.80;;;;;;10249928;28;20068;-90
2022/04/17 09:38:15;;;;;;;1.48;0.50;;;12.90;52.80;;;;;;10211574;28;20049;-91
2022/04/17 09:43:19;;;;;;;0.50;0.40;;;13.10;53.20;;;;;;10222104;28;20060;-90
2022/04/17 09:48:22;;;;;;;3.55;0.50;;;13.20;53.20;;;;;;10123259;28;20071;-90
2022/04/17 09:54:03;;;;;;;1.20;0.55;;;13.60;52.10;;;;;;10148683;28;20097;-90
2022/04/17 09:59:23;;;;;;;0.83;0.40;;;13.60;50.20;;;;;;10074362;28;20059;-91
2022/04/17 10:04:31;;;;;;;3.00;0.20;;;13.90;50.40;;;;;;10129184;28;20148;-91
2022/04/17 10:09:51;;;;;;;1.92;0.30;;;14.00;49.70;;;;;;9970054;28;20086;-91
2022/04/17 10:15:10;;;;;;;2.60;0.30;;;14.30;50.00;;;;;;9899357;28;20106;-90
2022/04/17 10:20:27;;;;;;;1.02;0.40;;;14.40;48.50;;;;;;10138507;28;20057;-91
2022/04/17 10:25:34;;;;;;;2.65;0.30;;;14.70;48.90;;;;;;10072482;28;20526;-90
2022/04/17 10:30:36;;;;;;;;;;;14.60;47.60;;;;;;10230357;28;20133;-90
2022/04/17 10:36:06;;;;;;;0.77;0.30;;;14.80;48.20;;;;;;10046578;28;20415;-91
2022/04/17 10:41:14;;;;;;;0.47;0.33;;;15.10;48.20;;;;;;9953319;28;20115;-91
2022/04/17 10:46:53;;;;;;;1.98;0.40;;;15.10;47.50;;;;;;10375749;28;20393;-63
2022/04/17 10:51:57;;;;;;;1.77;0.70;;;15.50;47.30;;;;;;10396214;28;20045;-62
2022/04/17 10:57:00;;;;;;;1.15;0.30;;;15.70;46.60;;;;;;10412876;28;20053;-63
2022/04/17 11:02:24;;;;;;;0.73;0.40;;;15.70;47.20;;;;;;10412214;28;20100;-63
2022/04/17 11:07:30;;;;;;;1.98;0.30;;;15.70;46.00;;;;;;10413925;28;20049;-63
2022/04/17 11:12:46;;;;;;;1.80;0.30;;;16.00;47.00;;;;;;10408018;28;20045;-60
2022/04/17 11:17:49;;;;;;;2.85;0.30;;;16.10;46.90;;;;;;10417641;28;20737;-63
2022/04/17 11:22:52;;;;;;;1.70;0.30;;;16.00;46.10;;;;;;10416661;28;20691;-63
2022/04/17 11:27:53;;;;;;;0.85;0.20;;;16.20;44.60;;;;;;10408478;28;20053;-63
2022/04/17 11:33:17;;;;;;;1.30;0.30;;;16.60;44.90;;;;;;10409902;28;20448;-63
2022/04/17 11:38:19;;;;;;;1.15;0.20;;;16.70;43.70;;;;;;10407727;28;20061;-63
2022/04/17 11:43:21;;;;;;;0.70;0.40;;;16.90;43.20;;;;;;10407387;28;20103;-63
2022/04/17 11:48:28;;;;;;;0.50;0.20;;;16.90;42.60;;;;;;10410432;28;20526;-62
2022/04/17 11:53:32;;;;;;;1.17;0.28;;;17.20;42.10;;;;;;10409598;28;20175;-62
2022/04/17 11:58:34;;;;;;;1.30;0.10;;;17.30;42.70;;;;;;10390071;28;20049;-62
2022/04/17 12:03:37;;;;;;;0.20;0.20;;;17.60;40.60;;;;;;10383966;28;20500;-62
2022/04/17 12:08:40;;;;;;;0.10;0.10;;;17.70;40.20;;;;;;10387857;28;20091;-62
2022/04/17 12:13:42;;;;;;;1.58;0.20;;;17.90;39.30;;;;;;10390660;28;20053;-62
2022/04/17 12:18:53;;;;;;;1.20;0.20;;;18.30;39.60;;;;;;10389156;28;20041;-63
2022/04/17 12:23:55;;;;;;;0.57;0.20;;;18.40;37.70;;;;;;10387721;28;20500;-63
2022/04/17 12:28:57;;;;;;;0.75;0.20;;;18.60;38.70;;;;;;10386881;28;20064;-62
2022/04/17 12:34:28;;;;;;;0.85;0.10;;;18.60;36.50;;;;;;10389140;28;20049;-62
2022/04/17 12:39:32;;;;;;;0.40;0.10;;;18.80;35.90;;;;;;10377745;28;20042;-63
2022/04/17 12:44:34;;;;;;;1.05;0.17;;;18.70;36.20;;;;;;10386543;28;20046;-64
2022/04/17 12:49:37;;;;;;;0.73;0.10;;;18.40;35.30;;;;;;10388862;28;20046;-63
2022/04/17 12:54:38;;;;;;;0.95;0.20;;;18.50;35.50;;;;;;10385026;28;20112;-63
2022/04/17 12:59:47;;;;;;;1.13;0.20;;;18.90;36.30;;;;;;10387388;28;20049;-63
2022/04/17 13:04:53;;;;;;;0.38;0.10;;;19.10;37.00;;;;;;10381423;28;20106;-63
2022/04/17 13:09:58;;;;;;;1.87;0.10;;;19.30;35.40;;;;;;10387108;28;20042;-62
2022/04/17 13:15:05;;;;;;;0.40;0.10;;;19.50;35.10;;;;;;10376501;28;20053;-62
2022/04/17 13:20:08;;;;;;;0.20;0.10;;;19.80;35.60;;;;;;10387483;28;20042;-62
2022/04/17 13:25:11;;;;;;;0.38;0.20;;;20.00;35.60;;;;;;10384690;28;20053;-62
2022/04/17 13:30:14;;;;;;;1.00;0.10;;;20.20;35.00;;;;;;10388886;28;20045;-62
2022/04/17 13:35:17;;;;;;;1.75;0.22;;;20.40;34.90;;;;;;10383106;28;20049;-62
2022/04/17 13:40:19;;;;;;;1.67;0.40;;;20.40;35.10;;;;;;10385579;28;20080;-62
2022/04/17 13:45:21;;;;;;;0.35;0.13;;;20.20;37.20;;;;;;10384524;28;20072;-62
2022/04/17 13:50:23;;;;;;;1.75;0.20;;;20.60;35.80;;;;;;10385898;28;20053;-62
2022/04/17 13:55:25;;;;;;;0.43;0.30;;;20.80;33.70;;;;;;10383899;28;20057;-61
2022/04/17 14:00:26;;;;;;;2.45;0.20;;;20.70;34.70;;;;;;10383320;28;20470;-61
2022/04/17 14:05:28;;;;;;;0.35;0.10;;;21.10;34.70;;;;;;10385562;28;20049;-62
2022/04/17 14:10:30;;;;;;;1.42;0.20;;;20.90;34.90;;;;;;10383236;28;20053;-62
2022/04/17 14:15:32;;;;;;;0.47;0.20;;;21.20;33.20;;;;;;10384435;28;20166;-61
2022/04/17 14:20:34;;;;;;;2.63;0.20;;;21.20;33.80;;;;;;10384250;28;20049;-60
2022/04/17 14:25:36;;;;;;;0.32;0.20;;;21.30;32.80;;;;;;10386233;28;20400;-60
2022/04/17 14:30:38;;;;;;;1.73;0.10;;;21.30;32.00;;;;;;10384352;28;20514;-61
2022/04/17 14:35:39;;;;;;;1.65;0.15;;;21.30;32.60;;;;;;10383483;28;20052;-62
2022/04/17 14:40:41;;;;;;;0.20;0.10;;;21.30;31.50;;;;;;10384604;28;20057;-62
2022/04/17 14:45:48;;;;;;;1.08;0.10;;;21.10;31.30;;;;;;10383175;28;20049;-62
2022/04/17 14:50:49;;;;;;;0.10;0.10;;;21.10;31.80;;;;;;10381839;28;20048;-61
2022/04/17 14:55:52;;;;;;;0.20;0.10;;;21.10;32.30;;;;;;10378408;28;20342;-62
2022/04/17 15:00:54;;;;;;;1.77;0.20;;;21.00;31.80;;;;;;10381388;28;20111;-60
2022/04/17 15:05:57;;;;;;;0.40;0.20;;;21.50;32.60;;;;;;10384602;28;20539;-61
2022/04/17 15:10:58;;;;;;;0.28;0.17;;;21.40;31.40;;;;;;10343888;28;20046;-62
2022/04/17 15:16:00;;;;;;;1.10;0.10;;;21.50;32.50;;;;;;10372031;28;20396;-62
2022/04/17 15:21:02;;;;;;;0.22;0.10;;;21.70;32.80;;;;;;10383401;28;20061;-62
2022/04/17 15:26:04;;;;;;;0.95;0.13;;;21.50;32.00;;;;;;10371486;28;20045;-62
2022/04/17 15:31:07;;;;;;;0.28;0.20;;;21.60;31.90;;;;;;10386769;28;20526;-61
2022/04/17 15:36:09;;;;;;;1.90;0.20;;;21.30;31.60;;;;;;10388963;28;20053;-61
2022/04/17 15:41:10;;;;;;;2.28;0.20;;;21.20;31.10;;;;;;10388258;28;20500;-61
2022/04/17 15:51:35;;;;;;;0.35;0.20;;;20.80;30.80;;;;;;10388997;28;20051;-60
2022/04/17 15:56:37;;;;;;;1.08;0.20;;;20.90;31.50;;;;;;10389852;28;20045;-62
2022/04/17 16:01:38;;;;;;;0.30;0.20;;;20.80;29.20;;;;;;10391224;28;20488;-62
2022/04/17 16:06:40;;;;;;;2.97;0.20;;;20.60;29.90;;;;;;10389571;28;20069;-61
2022/04/17 16:11:42;;;;;;;0.20;0.20;;;20.70;29.70;;;;;;10384200;28;20037;-61
2022/04/17 16:16:44;;;;;;;1.00;0.20;;;20.70;29.50;;;;;;10384965;28;20042;-62
2022/04/17 16:21:46;;;;;;;0.38;0.10;;;20.70;29.10;;;;;;10370902;28;20053;-60
2022/04/17 16:26:48;;;;;;;0.35;0.10;;;20.60;29.70;;;;;;10383442;28;20080;-60
2022/04/17 16:31:50;;;;;;;0.75;0.20;;;20.40;29.80;;;;;;10366643;28;20515;-60
2022/04/17 16:36:52;;;;;;;1.25;0.20;;;20.50;30.60;;;;;;10339169;28;20053;-60
2022/04/17 16:41:55;;;;;;;0.82;0.20;;;20.20;29.00;;;;;;10349739;28;20136;-60
2022/04/17 16:46:57;;;;;;;0.52;0.10;;;20.20;31.70;;;;;;10370533;28;20069;-59
2022/04/17 16:52:03;;;;;;;1.10;0.30;;;20.20;31.50;;;;;;10358360;28;20643;-63
2022/04/17 17:02:26;;;;;;;0.90;0.10;;;20.10;30.40;;;;;;10289086;28;20722;-63
2022/04/17 17:07:29;;;;;;;3.03;0.20;;;19.90;30.50;;;;;;10308656;28;20045;-62
2022/04/17 17:12:31;;;;;;;1.30;0.20;;;19.90;31.40;;;;;;10367694;28;20566;-62
2022/04/17 17:17:32;;;;;;;1.13;0.10;;;19.80;31.80;;;;;;10367599;28;20106;-63
2022/04/17 17:22:34;;;;;;;0.57;0.20;;;19.70;32.20;;;;;;10380065;28;20080;-62
2022/04/17 17:27:36;;;;;;;0.85;0.20;;;19.60;32.10;;;;;;10371882;28;20053;-62
2022/04/17 17:32:39;;;;;;;0.30;0.20;;;19.30;33.10;;;;;;10348881;28;20041;-63
2022/04/17 17:37:45;;;;;;;1.02;0.30;;;18.90;33.60;;;;;;10348098;28;20061;-64
2022/04/17 17:42:48;;;;;;;1.27;0.73;;;18.70;35.60;;;;;;10374955;28;20073;-63
2022/04/17 17:47:49;;;;;;;0.80;0.30;;;18.40;35.00;;;;;;10378531;28;20056;-63
2022/04/17 17:52:51;;;;;;;0.90;0.30;;;18.00;36.00;;;;;;10377155;28;20103;-63
2022/04/17 17:57:53;;;;;;;0.70;0.30;;;17.70;36.60;;;;;;10377788;28;20065;-63
2022/04/17 18:02:55;;;;;;;1.77;0.40;;;17.40;37.30;;;;;;10375820;28;20053;-64
2022/04/17 18:18:40;;;;;;;0.63;0.20;;;16.60;39.00;;;;;;10370496;28;20045;-62
2022/04/17 18:23:42;;;;;;;0.65;0.20;;;16.30;40.50;;;;;;10373369;28;20045;-64
2022/04/17 18:28:43;;;;;;;1.65;0.30;;;16.00;40.60;;;;;;10375435;28;20060;-61
2022/04/17 18:33:45;;;;;;;0.20;0.20;;;15.80;41.50;;;;;;10364499;28;20493;-60
2022/04/17 18:38:48;;;;;;;2.08;0.28;;;15.60;41.80;;;;;;10376217;28;20060;-61
2022/04/17 18:43:50;;;;;;;1.63;0.20;;;15.30;42.70;;;;;;10383361;28;20084;-60
2022/04/17 18:48:52;;;;;;;0.60;0.30;;;15.10;43.30;;;;;;10382947;28;20381;-60
2022/04/17 18:53:53;;;;;;;0.55;0.28;;;14.90;44.90;;;;;;10378866;28;20135;-59
2022/04/17 18:58:55;;;;;;;4.10;0.38;;;14.60;46.20;;;;;;10401916;22;20480;-89
2022/04/17 19:03:57;;;;;;;0.77;0.40;;;14.40;46.80;;;;;;10315023;28;20108;-89
2022/04/17 19:08:59;;;;;;;1.20;0.40;;;14.10;49.00;;;;;;10354900;28;20054;-89
2022/04/17 19:14:03;;;;;;;9.85;2.60;;;13.90;50.20;;;;;;10357921;28;20060;-89
2022/04/17 19:19:06;;;;;;;5.15;1.48;;;13.60;50.70;;;;;;10348401;28;20050;-89
2022/04/17 19:24:08;;;;;;;5.85;1.40;;;13.40;54.30;;;;;;10323607;28;20057;-89
2022/04/17 19:29:10;;;;;;;3.00;0.50;;;13.20;55.40;;;;;;10345851;28;20108;-89
2022/04/17 19:39:36;;;;;;;1.85;0.90;;;12.70;55.50;;;;;;10356609;28;20048;-89
2022/04/17 19:44:39;;;;;;;2.10;0.82;;;12.40;55.50;;;;;;10371239;28;20061;-89
2022/04/17 19:49:41;;;;;;;4.97;0.80;;;12.20;55.10;;;;;;10371425;28;20038;-89
2022/04/17 19:54:44;;;;;;;2.13;0.60;;;12.00;55.50;;;;;;10387924;28;20049;-88
2022/04/17 19:59:46;;;;;;;1.88;0.85;;;11.80;55.60;;;;;;10384495;28;20049;-90
2022/04/17 20:04:48;;;;;;;6.05;2.28;;;11.60;56.00;;;;;;10357608;28;20061;-89
2022/04/17 20:09:50;;;;;;;4.20;1.08;;;11.50;57.30;;;;;;10370809;28;20058;-90
2022/04/17 20:14:53;;;;;;;2.97;0.82;;;11.30;57.60;;;;;;10353898;28;20026;-90
2022/04/17 20:19:55;;;;;;;2.05;0.90;;;11.10;57.10;;;;;;10303406;28;20029;-90
2022/04/17 20:24:57;;;;;;;1.63;0.70;;;11.10;58.50;;;;;;10349192;28;20078;-90
2022/04/17 20:29:59;;;;;;;1.85;0.85;;;10.80;59.80;;;;;;10354917;28;20054;-91
2022/04/17 20:35:03;;;;;;;1.20;0.60;;;10.50;59.10;;;;;;10307315;28;20074;-89
2022/04/17 20:40:07;;;;;;;2.05;0.60;;;10.30;59.60;;;;;;10314664;28;20082;-89
2022/04/17 20:50:32;;;;;;;3.85;0.95;;;10.10;61.70;;;;;;10344759;28;20064;-90
2022/04/17 20:55:36;;;;;;;1.23;0.50;;;10.00;61.70;;;;;;10319969;28;20042;-89
2022/04/17 21:00:39;;;;;;;2.45;0.60;;;9.90;61.90;;;;;;10329664;28;20054;-90
2022/04/17 21:05:43;;;;;;;1.40;0.50;;;9.80;62.20;;;;;;10323651;28;21584;-90
2022/04/17 21:10:45;;;;;;;5.43;0.80;;;9.70;62.20;;;;;;10314950;28;20218;-89
2022/04/17 21:15:47;;;;;;;2.28;0.65;;;9.60;62.70;;;;;;10316562;28;20038;-90
2022/04/17 21:20:50;;;;;;;3.17;0.50;;;9.50;62.70;;;;;;10348180;28;20058;-91
2022/04/17 21:25:52;;;;;;;1.13;0.50;;;9.30;63.50;;;;;;10350299;28;20054;-90
2022/04/17 21:30:54;;;;;;;2.15;0.75;;;9.30;62.50;;;;;;10325264;28;20309;-90
2022/04/17 21:35:56;;;;;;;1.02;0.50;;;9.30;63.00;;;;;;10342623;28;20091;-89
2022/04/17 21:40:58;;;;;;;1.25;0.50;;;9.20;65.00;;;;;;10236107;28;20065;-88
2022/04/17 21:46:00;;;;;;;3.85;0.60;;;9.10;65.00;;;;;;10330642;28;20062;-90
2022/04/17 21:51:02;;;;;;;2.10;0.40;;;9.00;63.20;;;;;;10169688;28;20066;-89
2022/04/17 21:56:07;;;;;;;0.98;0.47;;;8.90;65.80;;;;;;10179910;28;20066;-88
2022/04/17 22:06:31;;;;;;;2.80;0.70;;;8.70;65.50;;;;;;10250142;28;20047;-89
2022/04/17 22:11:33;;;;;;;5.13;0.50;;;8.60;64.80;;;;;;10238386;28;20131;-89
2022/04/17 22:16:39;;;;;;;1.40;0.70;;;8.60;63.00;;;;;;10147363;28;20074;-89
2022/04/17 22:21:47;;;;;;;2.33;1.10;;;8.70;61.80;;;;;;9903040;28;20042;-89
2022/04/17 22:26:51;;;;;;;1.13;0.68;;;8.70;60.70;;;;;;10133198;28;20053;-90
2022/04/17 22:31:54;;;;;;;1.65;0.60;;;8.70;60.80;;;;;;10351063;28;20056;-90
2022/04/17 22:36:56;;;;;;;1.45;0.70;;;8.70;59.90;;;;;;10255534;28;20050;-88
2022/04/17 22:42:00;;;;;;;2.05;0.70;;;8.70;60.70;;;;;;10289235;28;20081;-89
2022/04/17 22:47:02;;;;;;;5.03;0.40;;;8.70;59.90;;;;;;10337247;28;20136;-88
2022/04/17 22:52:05;;;;;;;0.70;0.40;;;8.60;59.90;;;;;;10322895;28;20116;-88
2022/04/17 22:57:08;;;;;;;1.23;0.50;;;8.60;60.10;;;;;;10301203;28;20512;-89
2022/04/17 23:02:10;;;;;;;1.35;0.43;;;8.50;60.60;;;;;;10147896;28;20137;-89
2022/04/17 23:07:15;;;;;;;1.88;0.40;;;8.30;60.10;;;;;;10226654;28;20046;-89
2022/04/17 23:12:17;;;;;;;1.98;0.50;;;8.20;60.70;;;;;;10302547;28;20050;-88
2022/04/17 23:17:19;;;;;;;2.90;0.73;;;8.20;62.00;;;;;;10309001;28;20050;-89
2022/04/17 23:22:21;;;;;;;1.73;0.82;;;8.10;65.00;;;;;;10292982;28;20042;-88
2022/04/17 23:27:23;;;;;;;1.55;0.50;;;8.00;66.30;;;;;;10270353;28;20062;-87
2022/04/17 23:32:25;;;;;;;4.80;0.45;;;7.90;65.70;;;;;;10315176;28;20064;-88
2022/04/17 23:37:27;;;;;;;0.90;0.60;;;7.80;66.20;;;;;;10314069;28;20049;-89
2022/04/17 23:42:29;;;;;;;1.95;0.82;;;7.80;68.00;;;;;;10302870;28;20041;-89
2022/04/17 23:47:38;;;;;;;1.67;0.65;;;7.70;67.80;;;;;;10081962;28;20075;-89
2022/04/17 23:52:43;;;;;;;0.90;0.50;;;7.60;68.50;;;;;;10172212;28;20097;-90
2022/04/17 23:57:51;;;;;;;1.20;0.40;;;7.40;67.10;;;;;;10099961;28;20513;-89
